createdAt,value
2022-08-17T00:00:43.262Z,20.38
2022-08-17T00:03:22.718Z,20.34
2022-08-17T00:05:57.240Z,20.35
2022-08-17T00:08:31.707Z,20.34
2022-08-17T00:11:04.255Z,20.32
2022-08-17T00:13:38.800Z,20.30
2022-08-17T00:16:13.026Z,20.29
2022-08-17T00:19:02.080Z,20.27
2022-08-17T00:22:33.039Z,20.26
2022-08-17T00:24:33.746Z,20.25
2022-08-17T00:27:05.834Z,20.24
2022-08-17T00:29:38.369Z,20.25
2022-08-17T00:33:11.613Z,20.26
2022-08-17T00:35:02.960Z,20.25
2022-08-17T00:37:35.780Z,20.27
2022-08-17T00:40:08.686Z,20.27
2022-08-17T00:42:41.778Z,20.26
2022-08-17T00:45:16.430Z,20.28
2022-08-17T00:47:48.810Z,20.27
2022-08-17T00:50:19.905Z,20.28
2022-08-17T00:52:57.825Z,20.29
2022-08-17T00:55:29.690Z,20.27
2022-08-17T00:58:01.794Z,20.23
2022-08-17T01:06:50.634Z,20.18
2022-08-17T01:09:21.367Z,20.13
2022-08-17T01:11:52.193Z,20.10
2022-08-17T01:14:23.108Z,20.07
2022-08-17T01:16:55.538Z,20.03
2022-08-17T01:19:28.679Z,20.01
2022-08-17T01:22:04.834Z,19.96
2022-08-17T01:24:35.356Z,19.92
2022-08-17T01:27:10.183Z,19.88
2022-08-17T01:29:42.576Z,19.86
2022-08-17T01:32:13.201Z,19.85
2022-08-17T01:34:50.176Z,19.83
2022-08-17T01:37:22.700Z,19.84
2022-08-17T01:39:55.721Z,19.88
2022-08-17T01:42:32.449Z,19.92
2022-08-17T01:45:06.478Z,19.96
2022-08-17T01:47:37.432Z,19.99
2022-08-17T01:50:11.215Z,20.02
2022-08-17T01:52:42.344Z,20.05
2022-08-17T01:55:15.353Z,20.06
2022-08-17T01:57:46.357Z,20.07
2022-08-17T02:00:18.383Z,20.08
2022-08-17T02:02:48.877Z,20.11
2022-08-17T02:05:19.586Z,20.14
2022-08-17T02:07:59.945Z,20.14
2022-08-17T02:10:34.191Z,20.14
2022-08-17T02:13:05.085Z,20.14
2022-08-17T02:15:35.631Z,20.14
2022-08-17T02:18:07.003Z,20.16
2022-08-17T02:20:41.711Z,20.14
2022-08-17T02:23:14.294Z,20.08
2022-08-17T02:25:47.632Z,20.02
2022-08-17T02:28:18.407Z,19.94
2022-08-17T02:31:01.909Z,19.85
2022-08-17T02:33:41.652Z,19.74
2022-08-17T02:36:13.831Z,19.66
2022-08-17T02:38:44.818Z,19.59
2022-08-17T02:41:15.235Z,19.54
2022-08-17T02:43:45.607Z,19.50
2022-08-17T02:46:15.935Z,19.48
2022-08-17T02:48:46.326Z,19.48
2022-08-17T02:51:17.513Z,19.45
2022-08-17T02:53:48.181Z,19.47
2022-08-17T02:56:18.673Z,19.49
2022-08-17T02:58:49.161Z,19.50
2022-08-17T03:01:20.290Z,19.51
2022-08-17T03:03:50.660Z,19.54
2022-08-17T03:06:21.021Z,19.56
2022-08-17T03:08:52.285Z,19.57
2022-08-17T03:11:23.541Z,19.58
2022-08-17T03:13:53.913Z,19.60
2022-08-17T03:16:24.282Z,19.58
2022-08-17T03:18:55.125Z,19.58
2022-08-17T03:21:25.460Z,19.56
2022-08-17T03:23:55.780Z,19.56
2022-08-17T03:26:29.838Z,19.54
2022-08-17T03:29:00.549Z,19.52
2022-08-17T03:31:31.427Z,19.49
2022-08-17T03:34:01.968Z,19.46
2022-08-17T03:36:32.359Z,19.44
2022-08-17T03:39:07.059Z,19.41
2022-08-17T03:41:37.832Z,19.38
2022-08-17T03:44:08.123Z,19.36
2022-08-17T03:46:56.104Z,19.35
2022-08-17T03:49:44.277Z,19.33
2022-08-17T03:52:32.214Z,19.32
2022-08-17T03:55:20.265Z,19.33
2022-08-17T03:58:06.138Z,19.34
2022-08-17T04:00:39.670Z,19.34
2022-08-17T04:03:10.258Z,19.36
2022-08-17T04:05:41.268Z,19.36
2022-08-17T04:08:12.172Z,19.39
2022-08-17T04:10:45.238Z,19.43
2022-08-17T04:13:15.834Z,19.48
2022-08-17T04:15:56.126Z,19.55
2022-08-17T04:18:26.923Z,19.60
2022-08-17T04:20:57.208Z,19.65
2022-08-17T04:23:33.604Z,19.68
2022-08-17T04:26:04.751Z,19.71
2022-08-17T04:28:35.164Z,19.74
2022-08-17T04:31:05.580Z,19.77
2022-08-17T04:33:38.761Z,19.80
2022-08-17T04:36:10.599Z,19.84
2022-08-17T04:38:42.736Z,19.89
2022-08-17T04:41:31.321Z,19.97
2022-08-17T04:44:04.479Z,20.08
2022-08-17T04:46:37.236Z,20.18
2022-08-17T04:49:09.839Z,20.28
2022-08-17T04:51:40.071Z,20.36
2022-08-17T04:54:20.204Z,20.45
2022-08-17T04:56:51.693Z,20.51
2022-08-17T04:59:25.806Z,20.63
2022-08-17T05:01:56.996Z,20.78
2022-08-17T05:04:35.191Z,20.91
2022-08-17T05:07:06.626Z,21.01
2022-08-17T05:09:37.644Z,21.09
2022-08-17T05:12:10.479Z,21.20
2022-08-17T05:14:43.213Z,21.35
2022-08-17T05:17:12.656Z,21.51
2022-08-17T05:19:43.186Z,21.68
2022-08-17T05:22:13.684Z,21.89
2022-08-17T05:24:53.394Z,22.20
2022-08-17T05:27:25.032Z,22.82
2022-08-17T05:30:02.700Z,23.62
2022-08-17T05:32:38.982Z,24.22
2022-08-17T05:35:11.800Z,24.83
2022-08-17T05:37:42.428Z,25.42
2022-08-17T05:40:14.375Z,25.86
2022-08-17T05:42:45.478Z,25.95
2022-08-17T05:45:39.886Z,25.78
2022-08-17T05:48:07.353Z,25.50
2022-08-17T05:50:47.321Z,25.25
2022-08-17T05:53:25.735Z,24.96
2022-08-17T05:56:06.400Z,24.78
2022-08-17T05:59:05.399Z,24.61
2022-08-17T06:01:40.093Z,24.44
2022-08-17T06:04:21.226Z,24.27
2022-08-17T06:06:56.325Z,24.14
2022-08-17T06:09:39.859Z,24.01
2022-08-17T06:12:23.263Z,23.92
2022-08-17T06:15:03.345Z,23.78
2022-08-17T06:17:34.252Z,23.72
2022-08-17T06:20:09.636Z,23.68
2022-08-17T06:22:47.382Z,23.62
2022-08-17T06:25:31.335Z,23.51
2022-08-17T06:28:06.020Z,23.48
2022-08-17T06:30:59.428Z,23.55
2022-08-17T06:33:36.013Z,23.71
2022-08-17T06:36:16.024Z,23.83
2022-08-17T06:38:56.687Z,23.88
2022-08-17T06:41:35.716Z,23.91
2022-08-17T06:44:43.144Z,24.01
2022-08-17T06:47:28.418Z,24.19
2022-08-17T06:50:10.224Z,24.49
2022-08-17T06:52:51.811Z,24.91
2022-08-17T06:55:26.356Z,25.15
2022-08-17T06:58:02.065Z,25.24
2022-08-17T07:00:47.276Z,25.08
2022-08-17T07:03:26.714Z,24.89
2022-08-17T07:06:00.724Z,24.63
2022-08-17T07:08:35.589Z,24.40
2022-08-17T07:11:10.010Z,24.17
2022-08-17T07:13:51.764Z,23.99
2022-08-17T07:16:27.888Z,23.81
2022-08-17T07:18:59.511Z,23.62
2022-08-17T07:21:40.836Z,23.44
2022-08-17T07:24:29.412Z,23.20
2022-08-17T07:27:25.168Z,23.05
2022-08-17T07:29:58.796Z,23.01
2022-08-17T07:32:32.810Z,22.99
2022-08-17T07:35:16.701Z,23.00
2022-08-17T07:37:53.101Z,22.98
2022-08-17T07:40:33.435Z,22.96
2022-08-17T07:43:18.805Z,22.95
2022-08-17T07:46:15.792Z,22.91
2022-08-17T07:48:49.605Z,22.87
2022-08-17T07:51:29.620Z,22.85
2022-08-17T07:54:14.020Z,22.84
2022-08-17T07:56:48.399Z,22.78
2022-08-17T07:59:23.336Z,22.71
2022-08-17T08:02:08.046Z,22.71
2022-08-17T08:04:59.695Z,22.69
2022-08-17T08:07:37.043Z,22.63
2022-08-17T08:10:12.763Z,22.55
2022-08-17T08:12:45.566Z,22.50
2022-08-17T08:15:19.483Z,22.43
2022-08-17T08:17:53.241Z,22.36
2022-08-17T08:20:53.045Z,22.30
2022-08-17T08:23:25.549Z,22.23
2022-08-17T08:26:03.520Z,22.15
2022-08-17T08:28:37.878Z,22.08
2022-08-17T08:31:16.318Z,21.99
2022-08-17T08:33:56.277Z,21.93
2022-08-17T08:37:15.959Z,21.89
2022-08-17T08:39:34.577Z,21.87
2022-08-17T08:42:09.029Z,21.86
2022-08-17T08:45:00.350Z,21.85
2022-08-17T08:47:58.134Z,21.85
2022-08-17T08:50:42.780Z,21.90
2022-08-17T08:53:21.282Z,21.97
2022-08-17T08:55:56.091Z,22.07
2022-08-17T08:58:41.715Z,22.14
2022-08-17T09:01:18.750Z,22.17
2022-08-17T09:04:21.415Z,22.17
2022-08-17T09:07:01.824Z,22.10
2022-08-17T09:09:41.224Z,22.05
2022-08-17T09:12:17.798Z,21.98
2022-08-17T09:14:59.473Z,21.90
2022-08-17T09:17:38.196Z,21.83
2022-08-17T09:20:28.088Z,21.74
2022-08-17T09:23:02.688Z,21.70
2022-08-17T09:25:36.413Z,21.66
2022-08-17T09:28:09.350Z,21.64
2022-08-17T09:30:45.486Z,21.63
2022-08-17T09:33:19.408Z,21.64
2022-08-17T09:35:55.176Z,21.71
2022-08-17T09:38:32.515Z,21.82
2022-08-17T09:41:09.947Z,21.97
2022-08-17T09:43:44.630Z,22.14
2022-08-17T09:46:20.516Z,22.31
2022-08-17T09:48:56.143Z,22.47
2022-08-17T09:51:32.387Z,22.69
2022-08-17T09:54:37.091Z,22.94
2022-08-17T09:57:27.918Z,23.30
2022-08-17T10:00:10.060Z,23.79
2022-08-17T10:03:17.933Z,24.20
2022-08-17T10:05:56.706Z,24.58
2022-08-17T10:08:35.115Z,24.96
2022-08-17T10:11:11.874Z,25.35
2022-08-17T10:13:52.770Z,25.69
2022-08-17T10:16:30.034Z,25.96
2022-08-17T10:19:10.422Z,26.24
2022-08-17T10:22:00.971Z,26.44
2022-08-17T10:25:21.701Z,26.55
2022-08-17T10:27:48.658Z,26.51
2022-08-17T10:30:21.801Z,26.42
2022-08-17T10:32:55.287Z,26.32
2022-08-17T10:35:40.399Z,26.14
2022-08-17T10:38:34.127Z,25.94
2022-08-17T10:41:15.440Z,25.73
2022-08-17T10:44:28.364Z,25.62
2022-08-17T10:46:52.351Z,25.51
2022-08-17T10:49:33.030Z,25.53
2022-08-17T10:52:05.427Z,25.48
2022-08-17T10:54:39.607Z,25.27
2022-08-17T10:57:37.095Z,25.14
2022-08-17T11:00:15.901Z,25.00
2022-08-17T11:02:50.832Z,25.02
2022-08-17T11:05:44.597Z,25.10
2022-08-17T11:08:48.400Z,25.18
2022-08-17T11:11:38.433Z,25.11
2022-08-17T11:14:20.475Z,24.95
2022-08-17T11:17:02.700Z,24.76
2022-08-17T11:19:49.830Z,24.55
2022-08-17T11:22:47.739Z,24.37
2022-08-17T11:25:20.255Z,24.31
2022-08-17T11:27:54.389Z,24.37
2022-08-17T11:30:50.866Z,24.53
2022-08-17T11:33:58.804Z,24.77
2022-08-17T11:37:01.743Z,25.34
2022-08-17T11:39:51.956Z,26.62
2022-08-17T11:42:31.968Z,28.11
2022-08-17T11:45:09.411Z,28.34
2022-08-17T11:48:26.627Z,28.38
2022-08-17T11:51:16.100Z,28.61
2022-08-17T11:54:31.742Z,29.40
2022-08-17T11:56:58.902Z,30.66
2022-08-17T12:00:01.889Z,31.50
2022-08-17T12:02:48.212Z,32.41
2022-08-17T12:05:39.954Z,32.09
2022-08-17T12:08:18.423Z,32.15
2022-08-17T12:10:57.798Z,32.80
2022-08-17T12:13:32.790Z,33.47
2022-08-17T12:16:10.607Z,34.25
2022-08-17T12:18:42.835Z,34.78
2022-08-17T12:21:40.608Z,35.12
2022-08-17T12:24:20.339Z,35.71
2022-08-17T12:26:58.256Z,35.58
2022-08-17T12:29:35.938Z,34.68
2022-08-17T12:32:18.514Z,34.02
2022-08-17T12:34:51.737Z,34.28
2022-08-17T12:37:26.588Z,35.07
2022-08-17T12:40:02.601Z,35.60
2022-08-17T12:42:37.617Z,35.82
2022-08-17T12:45:23.509Z,35.99
2022-08-17T12:48:06.530Z,36.27
2022-08-17T12:50:40.223Z,36.56
2022-08-17T12:53:15.755Z,36.24
2022-08-17T12:55:47.640Z,35.49
2022-08-17T12:58:22.367Z,35.03
2022-08-17T13:06:32.054Z,35.40
2022-08-17T13:09:12.718Z,35.81
2022-08-17T13:11:50.625Z,36.52
2022-08-17T13:14:21.653Z,37.04
2022-08-17T13:16:56.175Z,37.33
2022-08-17T13:19:39.734Z,37.39
2022-08-17T13:22:13.323Z,37.38
2022-08-17T13:24:54.095Z,37.59
2022-08-17T13:27:25.981Z,37.83
2022-08-17T13:29:59.457Z,37.99
2022-08-17T13:32:43.687Z,38.14
2022-08-17T13:35:39.892Z,38.26
2022-08-17T13:38:13.969Z,38.58
2022-08-17T13:40:50.883Z,38.23
2022-08-17T13:43:49.489Z,36.67
2022-08-17T13:46:24.814Z,35.39
2022-08-17T13:49:04.032Z,34.88
2022-08-17T13:51:36.827Z,34.98
2022-08-17T13:54:21.894Z,36.22
2022-08-17T13:57:00.395Z,37.36
2022-08-17T13:59:53.856Z,37.85
2022-08-17T14:02:28.825Z,36.75
2022-08-17T14:05:01.971Z,35.75
2022-08-17T14:07:39.539Z,35.30
2022-08-17T14:10:14.229Z,34.77
2022-08-17T14:12:45.799Z,34.11
2022-08-17T14:15:24.418Z,33.56
2022-08-17T14:18:17.669Z,33.36
2022-08-17T14:20:48.050Z,34.01
2022-08-17T14:23:18.974Z,35.07
2022-08-17T14:25:49.376Z,35.20
2022-08-17T14:28:19.730Z,35.99
2022-08-17T14:30:50.338Z,37.33
2022-08-17T14:33:22.528Z,38.49
2022-08-17T14:35:53.598Z,39.40
2022-08-17T14:38:24.246Z,39.82
2022-08-17T14:40:54.585Z,39.85
2022-08-17T14:43:24.929Z,39.89
2022-08-17T14:45:55.312Z,40.15
2022-08-17T14:48:25.689Z,40.19
2022-08-17T14:50:56.645Z,39.85
2022-08-17T14:53:27.015Z,39.35
2022-08-17T14:55:57.619Z,38.87
2022-08-17T14:58:29.514Z,38.16
2022-08-17T15:01:00.063Z,37.77
2022-08-17T15:03:30.452Z,37.46
2022-08-17T15:06:00.790Z,36.04
2022-08-17T15:08:31.705Z,34.83
2022-08-17T15:11:03.654Z,33.77
2022-08-17T15:13:34.191Z,32.90
2022-08-17T15:16:05.395Z,32.17
2022-08-17T15:18:36.090Z,31.50
2022-08-17T15:21:07.157Z,30.94
2022-08-17T15:23:38.527Z,30.47
2022-08-17T15:26:09.209Z,30.11
2022-08-17T15:28:39.538Z,29.75
2022-08-17T15:31:09.916Z,29.41
2022-08-17T15:33:40.939Z,29.23
2022-08-17T15:36:12.205Z,28.98
2022-08-17T15:38:44.522Z,28.75
2022-08-17T15:41:18.171Z,28.51
2022-08-17T15:43:49.933Z,28.31
2022-08-17T15:46:22.513Z,28.15
2022-08-17T15:48:58.082Z,28.05
2022-08-17T15:51:30.230Z,27.99
2022-08-17T15:54:04.275Z,27.97
2022-08-17T15:56:49.893Z,27.81
2022-08-17T15:59:20.324Z,27.75
2022-08-17T16:03:13.144Z,27.81
2022-08-17T16:04:43.993Z,27.84
2022-08-17T16:07:16.240Z,28.09
2022-08-17T16:09:46.869Z,28.58
2022-08-17T16:12:19.694Z,28.90
2022-08-17T16:14:53.486Z,29.24
2022-08-17T16:17:39.259Z,29.53
2022-08-17T16:20:20.421Z,29.80
2022-08-17T16:22:52.564Z,29.99
2022-08-17T16:25:47.104Z,30.13
2022-08-17T16:28:35.706Z,30.33
2022-08-17T16:31:08.103Z,30.46
2022-08-17T16:33:39.707Z,30.54
2022-08-17T16:36:10.770Z,30.53
2022-08-17T16:38:41.114Z,30.48
2022-08-17T16:41:12.698Z,30.51
2022-08-17T16:43:41.637Z,30.57
2022-08-17T16:46:11.994Z,30.52
2022-08-17T16:48:44.518Z,30.48
2022-08-17T16:51:14.873Z,30.32
2022-08-17T16:53:45.238Z,30.09
2022-08-17T16:56:25.301Z,29.85
2022-08-17T16:58:57.136Z,29.59
2022-08-17T17:01:41.735Z,29.35
2022-08-17T17:04:15.212Z,29.19
2022-08-17T17:06:54.624Z,29.03
2022-08-17T17:09:29.252Z,28.83
2022-08-17T17:12:01.017Z,28.67
2022-08-17T17:14:33.282Z,28.53
2022-08-17T17:17:06.471Z,28.43
2022-08-17T17:19:41.422Z,28.32
2022-08-17T17:22:17.233Z,28.23
2022-08-17T17:24:57.317Z,28.12
2022-08-17T17:27:33.213Z,28.02
2022-08-17T17:30:09.920Z,27.95
2022-08-17T17:32:45.915Z,27.88
2022-08-17T17:35:20.732Z,27.77
2022-08-17T17:37:52.579Z,27.66
2022-08-17T17:40:23.033Z,27.56
2022-08-17T17:42:56.017Z,27.44
2022-08-17T17:45:31.279Z,27.31
2022-08-17T17:48:01.682Z,27.21
2022-08-17T17:50:45.683Z,27.11
2022-08-17T17:53:26.115Z,26.96
2022-08-17T17:56:18.744Z,26.82
2022-08-17T17:59:05.644Z,26.70
2022-08-17T18:01:48.883Z,26.59
2022-08-17T18:04:24.907Z,26.48
2022-08-17T18:07:10.130Z,26.37
2022-08-17T18:10:02.642Z,26.25
2022-08-17T18:12:37.377Z,26.12
2022-08-17T18:15:31.698Z,26.01
2022-08-17T18:18:28.720Z,25.87
2022-08-17T18:21:06.385Z,25.70
2022-08-17T18:23:36.908Z,25.53
2022-08-17T18:26:08.628Z,25.37
2022-08-17T18:28:44.157Z,25.23
2022-08-17T18:31:20.042Z,25.07
2022-08-17T18:33:52.401Z,24.91
2022-08-17T18:36:28.580Z,24.74
2022-08-17T18:39:12.883Z,24.55
2022-08-17T18:41:45.319Z,24.37
2022-08-17T18:44:29.052Z,24.19
2022-08-17T18:47:18.443Z,24.01
2022-08-17T18:49:53.577Z,23.85
2022-08-17T18:52:28.958Z,23.70
2022-08-17T18:55:09.832Z,23.58
2022-08-17T18:57:42.965Z,23.45
2022-08-17T19:00:21.244Z,23.34
2022-08-17T19:02:54.624Z,23.24
2022-08-17T19:05:36.214Z,23.14
2022-08-17T19:08:22.497Z,23.04
2022-08-17T19:10:54.365Z,22.93
2022-08-17T19:13:29.813Z,22.84
2022-08-17T19:16:07.758Z,22.76
2022-08-17T19:18:48.862Z,22.68
2022-08-17T19:21:24.597Z,22.61
2022-08-17T19:23:58.954Z,22.56
2022-08-17T19:26:50.692Z,22.49
2022-08-17T19:29:22.383Z,22.45
2022-08-17T19:40:00.834Z,22.30
2022-08-17T19:42:40.710Z,22.22
2022-08-17T19:45:17.359Z,22.16
2022-08-17T19:47:56.044Z,22.10
2022-08-17T19:50:38.437Z,22.03
2022-08-17T19:53:14.944Z,21.96
2022-08-17T19:55:52.345Z,21.88
2022-08-17T19:58:34.730Z,21.82
2022-08-17T20:01:08.071Z,21.74
2022-08-17T20:03:57.849Z,21.67
2022-08-17T20:06:31.765Z,21.60
2022-08-17T20:09:15.266Z,21.56
2022-08-17T20:11:49.771Z,21.52
2022-08-17T20:14:23.672Z,21.48
2022-08-17T20:16:58.207Z,21.44
2022-08-17T20:19:36.997Z,21.42
2022-08-17T20:22:13.261Z,21.39
2022-08-17T20:24:47.945Z,21.39
2022-08-17T20:27:20.364Z,21.37
2022-08-17T20:36:36.985Z,21.42
2022-08-17T20:39:07.650Z,21.48
2022-08-17T20:42:05.872Z,21.56
2022-08-17T20:44:38.389Z,21.62
2022-08-17T20:47:12.637Z,21.65
2022-08-17T20:49:50.708Z,21.67
2022-08-17T20:52:50.733Z,21.69
2022-08-17T20:55:54.768Z,21.70
2022-08-17T20:58:47.197Z,21.74
2022-08-17T21:01:25.266Z,21.80
2022-08-17T21:09:53.505Z,21.94
2022-08-17T21:12:41.450Z,21.96
2022-08-17T21:15:24.109Z,21.99
2022-08-17T21:17:59.142Z,22.01
2022-08-17T21:20:34.125Z,22.03
2022-08-17T21:23:23.900Z,22.04
2022-08-17T21:26:09.496Z,22.08
2022-08-17T21:29:00.805Z,22.09
2022-08-17T21:31:36.247Z,22.09
2022-08-17T21:34:34.008Z,22.09
2022-08-17T21:37:34.865Z,22.09
2022-08-17T21:40:23.359Z,22.09
2022-08-17T21:43:01.049Z,22.09
2022-08-17T21:45:35.344Z,22.08
2022-08-17T21:48:13.914Z,22.08
2022-08-17T21:50:49.472Z,22.09
2022-08-17T21:53:32.250Z,22.10
2022-08-17T21:56:04.146Z,22.11
2022-08-17T21:58:39.224Z,22.11
2022-08-17T22:01:20.426Z,22.12
2022-08-17T22:03:59.040Z,22.12
2022-08-17T22:06:34.604Z,22.13
2022-08-17T22:09:14.616Z,22.15
2022-08-17T22:11:54.910Z,22.15
2022-08-17T22:14:53.243Z,22.16
2022-08-17T22:17:21.930Z,22.19
2022-08-17T22:19:54.160Z,22.21
2022-08-17T22:22:33.234Z,22.24
2022-08-17T22:25:06.788Z,22.25
2022-08-17T22:27:56.670Z,22.26
2022-08-17T22:30:35.390Z,22.27
2022-08-17T22:33:40.012Z,22.26
2022-08-17T22:36:25.157Z,22.25
2022-08-17T22:38:57.867Z,22.20
2022-08-17T22:41:39.211Z,22.14
2022-08-17T22:44:17.707Z,22.06
2022-08-17T22:47:06.763Z,21.97
2022-08-17T22:49:53.513Z,21.87
2022-08-17T22:52:34.028Z,21.77
2022-08-17T22:55:30.488Z,21.68
2022-08-17T22:58:19.115Z,21.60
2022-08-17T23:00:51.077Z,21.52
2022-08-17T23:03:24.591Z,21.45
2022-08-17T23:06:08.078Z,21.38
2022-08-17T23:08:48.627Z,21.33
2022-08-17T23:11:19.855Z,21.28
2022-08-17T23:14:08.293Z,21.23
2022-08-17T23:16:40.973Z,21.17
2022-08-17T23:19:10.381Z,21.13
2022-08-17T23:21:41.535Z,21.07
2022-08-17T23:24:14.241Z,21.03
2022-08-17T23:26:47.596Z,21.01
2022-08-17T23:29:20.294Z,20.99
2022-08-17T23:31:55.585Z,20.95
2022-08-17T23:34:28.116Z,20.88
2022-08-17T23:36:57.771Z,20.82
2022-08-17T23:39:32.164Z,20.78
2022-08-17T23:42:08.093Z,20.72
2022-08-17T23:44:41.049Z,20.65
2022-08-17T23:47:12.722Z,20.57
2022-08-17T23:49:44.282Z,20.48
2022-08-17T23:52:18.040Z,20.39
2022-08-17T23:54:50.973Z,20.31
2022-08-17T23:57:33.234Z,20.21
